sensor_id;sensor_type;location;lat;lon;timestamp;pressure;altitude;pressure_sealevel;temperature;humidity
71457;BME280;59263;48.160;11.752;2023-10-13T00:00:29;95985.72;;;19.07;79.40
71457;BME280;59263;48.160;11.752;2023-10-13T00:02:56;95975.13;;;18.94;80.64
71457;BME280;59263;48.160;11.752;2023-10-13T00:05:28;95977.88;;;18.65;84.24
71457;BME280;59263;48.160;11.752;2023-10-13T00:07:53;95960.84;;;18.26;90.16
71457;BME280;59263;48.160;11.752;2023-10-13T00:10:19;95978.97;;;18.27;90.61
71457;BME280;59263;48.160;11.752;2023-10-13T00:12:44;95968.53;;;18.12;90.54
71457;BME280;59263;48.160;11.752;2023-10-13T00:15:17;95989.44;;;18.06;93.33
71457;BME280;59263;48.160;11.752;2023-10-13T00:17:43;95982.00;;;17.88;95.57
71457;BME280;59263;48.160;11.752;2023-10-13T00:20:09;95985.16;;;17.69;98.80
71457;BME280;59263;48.160;11.752;2023-10-13T00:22:57;95993.28;;;17.59;100.00
71457;BME280;59263;48.160;11.752;2023-10-13T00:25:23;95997.44;;;17.53;100.00
71457;BME280;59263;48.160;11.752;2023-10-13T00:27:52;95993.31;;;17.29;100.00
71457;BME280;59263;48.160;11.752;2023-10-13T00:30:17;95986.63;;;17.27;100.00
71457;BME280;59263;48.160;11.752;2023-10-13T00:32:49;95991.31;;;17.16;100.00
71457;BME280;59263;48.160;11.752;2023-10-13T00:35:25;95992.66;;;17.12;100.00
71457;BME280;59263;48.160;11.752;2023-10-13T00:37:52;95989.69;;;17.15;100.00
71457;BME280;59263;48.160;11.752;2023-10-13T00:40:21;95988.34;;;17.20;100.00
71457;BME280;59263;48.160;11.752;2023-10-13T00:43:00;95985.72;;;17.20;100.00
71457;BME280;59263;48.160;11.752;2023-10-13T00:45:48;95988.97;;;17.22;100.00
71457;BME280;59263;48.160;11.752;2023-10-13T00:48:21;95982.38;;;17.11;100.00
71457;BME280;59263;48.160;11.752;2023-10-13T00:50:49;95981.75;;;17.09;100.00
71457;BME280;59263;48.160;11.752;2023-10-13T00:53:15;95984.00;;;16.97;100.00
71457;BME280;59263;48.160;11.752;2023-10-13T00:55:41;95992.13;;;17.02;100.00
71457;BME280;59263;48.160;11.752;2023-10-13T00:58:07;95986.25;;;17.00;100.00
71457;BME280;59263;48.160;11.752;2023-10-13T01:00:37;95993.84;;;16.95;100.00
71457;BME280;59263;48.160;11.752;2023-10-13T01:03:12;95997.78;;;16.91;100.00
71457;BME280;59263;48.160;11.752;2023-10-13T01:05:38;95998.84;;;16.82;100.00
71457;BME280;59263;48.160;11.752;2023-10-13T01:08:04;96000.59;;;16.66;100.00
71457;BME280;59263;48.160;11.752;2023-10-13T01:10:30;95989.47;;;16.64;100.00
71457;BME280;59263;48.160;11.752;2023-10-13T01:12:57;95992.16;;;16.56;100.00
71457;BME280;59263;48.160;11.752;2023-10-13T01:15:24;95991.56;;;16.54;100.00
71457;BME280;59263;48.160;11.752;2023-10-13T01:18:06;95979.91;;;16.57;100.00
71457;BME280;59263;48.160;11.752;2023-10-13T01:20:37;95988.97;;;16.69;100.00
71457;BME280;59263;48.160;11.752;2023-10-13T01:23:11;95976.25;;;16.66;100.00
71457;BME280;59263;48.160;11.752;2023-10-13T01:25:49;95973.19;;;16.62;100.00
71457;BME280;59263;48.160;11.752;2023-10-13T01:28:14;95974.34;;;16.60;100.00
71457;BME280;59263;48.160;11.752;2023-10-13T01:30:44;95981.09;;;16.54;100.00
71457;BME280;59263;48.160;11.752;2023-10-13T01:33:19;95976.91;;;16.45;100.00
71457;BME280;59263;48.160;11.752;2023-10-13T01:35:52;95972.69;;;16.44;100.00
71457;BME280;59263;48.160;11.752;2023-10-13T01:38:18;95971.19;;;16.27;100.00
71457;BME280;59263;48.160;11.752;2023-10-13T01:40:43;95974.78;;;16.26;100.00
71457;BME280;59263;48.160;11.752;2023-10-13T01:43:09;95968.34;;;16.36;100.00
71457;BME280;59263;48.160;11.752;2023-10-13T01:45:37;95978.94;;;16.35;100.00
71457;BME280;59263;48.160;11.752;2023-10-13T01:48:14;95973.19;;;16.16;100.00
71457;BME280;59263;48.160;11.752;2023-10-13T01:50:42;95975.41;;;16.28;100.00
71457;BME280;59263;48.160;11.752;2023-10-13T01:53:08;95977.25;;;15.96;100.00
71457;BME280;59263;48.160;11.752;2023-10-13T01:55:40;95974.69;;;15.88;100.00
71457;BME280;59263;48.160;11.752;2023-10-13T01:58:13;95984.81;;;15.83;100.00
71457;BME280;59263;48.160;11.752;2023-10-13T02:00:42;95981.19;;;15.92;100.00
71457;BME280;59263;48.160;11.752;2023-10-13T02:03:11;95982.75;;;16.09;100.00
71457;BME280;59263;48.160;11.752;2023-10-13T02:05:44;95992.31;;;15.86;100.00
71457;BME280;59263;48.160;11.752;2023-10-13T02:08:19;95981.88;;;15.86;100.00
71457;BME280;59263;48.160;11.752;2023-10-13T02:10:58;95986.16;;;15.79;100.00
71457;BME280;59263;48.160;11.752;2023-10-13T02:13:26;95987.53;;;15.66;100.00
71457;BME280;59263;48.160;11.752;2023-10-13T02:15:56;95981.34;;;15.59;100.00
71457;BME280;59263;48.160;11.752;2023-10-13T02:18:23;95975.03;;;15.45;100.00
71457;BME280;59263;48.160;11.752;2023-10-13T02:20:55;95981.75;;;15.40;100.00
71457;BME280;59263;48.160;11.752;2023-10-13T02:23:22;95964.13;;;15.42;100.00
71457;BME280;59263;48.160;11.752;2023-10-13T02:25:48;95979.25;;;15.55;100.00
71457;BME280;59263;48.160;11.752;2023-10-13T02:28:17;95987.59;;;15.50;100.00
71457;BME280;59263;48.160;11.752;2023-10-13T02:30:47;95978.44;;;15.54;100.00
71457;BME280;59263;48.160;11.752;2023-10-13T02:33:16;95983.28;;;15.57;100.00
71457;BME280;59263;48.160;11.752;2023-10-13T02:35:56;95976.97;;;15.52;100.00
71457;BME280;59263;48.160;11.752;2023-10-13T02:38:22;95976.56;;;15.23;100.00
71457;BME280;59263;48.160;11.752;2023-10-13T02:41:13;95986.34;;;15.30;100.00
71457;BME280;59263;48.160;11.752;2023-10-13T02:43:50;95984.06;;;15.27;100.00
71457;BME280;59263;48.160;11.752;2023-10-13T02:46:15;95982.81;;;15.14;100.00
71457;BME280;59263;48.160;11.752;2023-10-13T02:48:41;95980.16;;;15.22;100.00
71457;BME280;59263;48.160;11.752;2023-10-13T02:51:08;95982.44;;;15.25;100.00
71457;BME280;59263;48.160;11.752;2023-10-13T02:53:41;95982.31;;;15.11;100.00
71457;BME280;59263;48.160;11.752;2023-10-13T02:56:07;95976.94;;;15.20;100.00
71457;BME280;59263;48.160;11.752;2023-10-13T02:58:33;95972.69;;;15.11;100.00
71457;BME280;59263;48.160;11.752;2023-10-13T03:01:08;95974.69;;;14.93;100.00
71457;BME280;59263;48.160;11.752;2023-10-13T03:03:50;95978.63;;;14.89;100.00
71457;BME280;59263;48.160;11.752;2023-10-13T03:06:17;95971.94;;;14.86;100.00
71457;BME280;59263;48.160;11.752;2023-10-13T03:08:44;95969.84;;;14.73;100.00
71457;BME280;59263;48.160;11.752;2023-10-13T03:11:10;95970.66;;;14.74;100.00
71457;BME280;59263;48.160;11.752;2023-10-13T03:13:36;95978.66;;;14.72;100.00
71457;BME280;59263;48.160;11.752;2023-10-13T03:16:11;95977.63;;;14.90;100.00
71457;BME280;59263;48.160;11.752;2023-10-13T03:18:36;95970.16;;;14.79;100.00
71457;BME280;59263;48.160;11.752;2023-10-13T03:21:03;95980.13;;;14.50;100.00
71457;BME280;59263;48.160;11.752;2023-10-13T03:23:28;95968.91;;;14.50;100.00
71457;BME280;59263;48.160;11.752;2023-10-13T03:26:01;95973.09;;;14.67;100.00
71457;BME280;59263;48.160;11.752;2023-10-13T03:28:33;95970.50;;;14.67;100.00
71457;BME280;59263;48.160;11.752;2023-10-13T03:30:59;95971.16;;;14.77;100.00
71457;BME280;59263;48.160;11.752;2023-10-13T03:33:26;95977.53;;;14.59;100.00
71457;BME280;59263;48.160;11.752;2023-10-13T03:35:51;95970.16;;;14.38;100.00
71457;BME280;59263;48.160;11.752;2023-10-13T03:38:24;95973.44;;;14.40;100.00
71457;BME280;59263;48.160;11.752;2023-10-13T03:40:52;95971.47;;;14.42;100.00
71457;BME280;59263;48.160;11.752;2023-10-13T03:43:33;95968.53;;;14.37;100.00
71457;BME280;59263;48.160;11.752;2023-10-13T03:46:10;95972.28;;;14.10;100.00
71457;BME280;59263;48.160;11.752;2023-10-13T03:48:35;95966.56;;;14.06;100.00
71457;BME280;59263;48.160;11.752;2023-10-13T03:51:22;95965.91;;;13.96;100.00
71457;BME280;59263;48.160;11.752;2023-10-13T03:53:48;95958.09;;;14.04;100.00
71457;BME280;59263;48.160;11.752;2023-10-13T03:56:20;95967.38;;;14.15;100.00
71457;BME280;59263;48.160;11.752;2023-10-13T03:59:05;95969.81;;;14.08;100.00
71457;BME280;59263;48.160;11.752;2023-10-13T04:01:35;95969.81;;;14.08;100.00
71457;BME280;59263;48.160;11.752;2023-10-13T04:04:14;95965.59;;;14.15;100.00
71457;BME280;59263;48.160;11.752;2023-10-13T04:06:41;95969.84;;;14.24;100.00
71457;BME280;59263;48.160;11.752;2023-10-13T04:09:21;95971.47;;;14.09;100.00
71457;BME280;59263;48.160;11.752;2023-10-13T04:12:08;95966.22;;;14.01;100.00
71457;BME280;59263;48.160;11.752;2023-10-13T04:14:39;95970.13;;;14.05;100.00
71457;BME280;59263;48.160;11.752;2023-10-13T04:17:24;95965.25;;;13.94;100.00
71457;BME280;59263;48.160;11.752;2023-10-13T04:19:55;95968.13;;;13.74;100.00
71457;BME280;59263;48.160;11.752;2023-10-13T04:22:34;95967.13;;;13.67;100.00
71457;BME280;59263;48.160;11.752;2023-10-13T04:25:15;95970.41;;;13.69;100.00
71457;BME280;59263;48.160;11.752;2023-10-13T04:28:04;95965.13;;;13.53;100.00
71457;BME280;59263;48.160;11.752;2023-10-13T04:30:48;95964.06;;;13.72;100.00
71457;BME280;59263;48.160;11.752;2023-10-13T04:33:23;95956.38;;;13.54;100.00
71457;BME280;59263;48.160;11.752;2023-10-13T04:36:08;95955.13;;;13.66;100.00
71457;BME280;59263;48.160;11.752;2023-10-13T04:38:47;95952.34;;;13.68;100.00
71457;BME280;59263;48.160;11.752;2023-10-13T04:41:40;95943.41;;;13.62;100.00
71457;BME280;59263;48.160;11.752;2023-10-13T04:44:15;95945.81;;;13.55;100.00
71457;BME280;59263;48.160;11.752;2023-10-13T04:47:00;95947.28;;;13.58;100.00
71457;BME280;59263;48.160;11.752;2023-10-13T04:49:27;95947.56;;;13.39;100.00
71457;BME280;59263;48.160;11.752;2023-10-13T04:51:58;95948.91;;;13.17;100.00
71457;BME280;59263;48.160;11.752;2023-10-13T04:54:28;95952.59;;;13.06;100.00
71457;BME280;59263;48.160;11.752;2023-10-13T04:57:14;95956.09;;;12.97;100.00
71457;BME280;59263;48.160;11.752;2023-10-13T04:59:49;95951.16;;;12.86;100.00
71457;BME280;59263;48.160;11.752;2023-10-13T05:02:34;95952.47;;;12.90;100.00
71457;BME280;59263;48.160;11.752;2023-10-13T05:05:13;95950.06;;;12.88;100.00
71457;BME280;59263;48.160;11.752;2023-10-13T05:07:51;95946.34;;;12.91;100.00
71457;BME280;59263;48.160;11.752;2023-10-13T05:10:36;95946.06;;;13.02;100.00
71457;BME280;59263;48.160;11.752;2023-10-13T05:13:20;95940.94;;;13.18;100.00
71457;BME280;59263;48.160;11.752;2023-10-13T05:16:04;95930.25;;;13.21;100.00
71457;BME280;59263;48.160;11.752;2023-10-13T05:18:47;95939.94;;;13.45;100.00
71457;BME280;59263;48.160;11.752;2023-10-13T05:21:31;95946.31;;;13.67;100.00
71457;BME280;59263;48.160;11.752;2023-10-13T05:24:15;95942.72;;;13.60;100.00
71457;BME280;59263;48.160;11.752;2023-10-13T05:26:59;95948.09;;;13.59;100.00
71457;BME280;59263;48.160;11.752;2023-10-13T05:29:44;95945.06;;;13.79;100.00
71457;BME280;59263;48.160;11.752;2023-10-13T05:32:29;95942.81;;;13.85;100.00
71457;BME280;59263;48.160;11.752;2023-10-13T05:35:14;95936.47;;;13.87;100.00
71457;BME280;59263;48.160;11.752;2023-10-13T05:37:58;95941.19;;;13.92;100.00
71457;BME280;59263;48.160;11.752;2023-10-13T05:40:59;95942.66;;;13.94;100.00
71457;BME280;59263;48.160;11.752;2023-10-13T05:43:43;95950.59;;;13.93;100.00
71457;BME280;59263;48.160;11.752;2023-10-13T05:46:27;95945.72;;;13.90;100.00
71457;BME280;59263;48.160;11.752;2023-10-13T05:48:53;95946.41;;;14.00;100.00
71457;BME280;59263;48.160;11.752;2023-10-13T05:51:29;95949.00;;;14.00;100.00
71457;BME280;59263;48.160;11.752;2023-10-13T05:54:02;95946.41;;;14.00;100.00
71457;BME280;59263;48.160;11.752;2023-10-13T05:59:25;95946.41;;;14.16;100.00
71457;BME280;59263;48.160;11.752;2023-10-13T06:02:09;95946.44;;;14.24;100.00
71457;BME280;59263;48.160;11.752;2023-10-13T06:04:53;95956.50;;;14.36;100.00
71457;BME280;59263;48.160;11.752;2023-10-13T06:07:37;95956.16;;;14.22;100.00
71457;BME280;59263;48.160;11.752;2023-10-13T06:10:20;95959.94;;;14.28;100.00
71457;BME280;59263;48.160;11.752;2023-10-13T06:13:04;95965.50;;;14.58;100.00
71457;BME280;59263;48.160;11.752;2023-10-13T06:15:48;95967.25;;;14.57;100.00
71457;BME280;59263;48.160;11.752;2023-10-13T06:18:32;95959.13;;;14.60;100.00
71457;BME280;59263;48.160;11.752;2023-10-13T06:21:16;95958.63;;;14.73;100.00
71457;BME280;59263;48.160;11.752;2023-10-13T06:24:00;95954.72;;;14.77;100.00
71457;BME280;59263;48.160;11.752;2023-10-13T06:26:44;95958.44;;;14.83;100.00
71457;BME280;59263;48.160;11.752;2023-10-13T06:29:30;95962.81;;;14.98;100.00
71457;BME280;59263;48.160;11.752;2023-10-13T06:31:56;95957.44;;;14.92;100.00
71457;BME280;59263;48.160;11.752;2023-10-13T06:34:23;95947.00;;;15.00;100.00
71457;BME280;59263;48.160;11.752;2023-10-13T06:37:05;95955.13;;;15.13;100.00
71457;BME280;59263;48.160;11.752;2023-10-13T06:39:54;95955.34;;;15.43;100.00
71457;BME280;59263;48.160;11.752;2023-10-13T06:42:23;95960.19;;;15.46;100.00
71457;BME280;59263;48.160;11.752;2023-10-13T06:44:52;95951.53;;;15.54;100.00
71457;BME280;59263;48.160;11.752;2023-10-13T06:47:18;95952.47;;;15.61;100.00
71457;BME280;59263;48.160;11.752;2023-10-13T06:49:47;95953.63;;;15.58;100.00
71457;BME280;59263;48.160;11.752;2023-10-13T06:52:19;95965.28;;;15.79;100.00
71457;BME280;59263;48.160;11.752;2023-10-13T06:54:44;95961.25;;;15.76;100.00
71457;BME280;59263;48.160;11.752;2023-10-13T06:57:10;95963.88;;;15.99;100.00
71457;BME280;59263;48.160;11.752;2023-10-13T06:59:48;95962.19;;;16.06;100.00
71457;BME280;59263;48.160;11.752;2023-10-13T07:02:14;95968.69;;;16.10;100.00
71457;BME280;59263;48.160;11.752;2023-10-13T07:04:50;95968.09;;;16.23;96.64
71457;BME280;59263;48.160;11.752;2023-10-13T07:07:32;95968.56;;;16.27;97.92
71457;BME280;59263;48.160;11.752;2023-10-13T07:09:58;95969.38;;;16.27;99.98
71457;BME280;59263;48.160;11.752;2023-10-13T07:12:24;95973.44;;;16.30;100.00
71457;BME280;59263;48.160;11.752;2023-10-13T07:14:52;95961.69;;;16.49;98.40
71457;BME280;59263;48.160;11.752;2023-10-13T07:17:20;95951.09;;;16.50;97.75
71457;BME280;59263;48.160;11.752;2023-10-13T07:19:54;95969.22;;;16.66;95.80
71457;BME280;59263;48.160;11.752;2023-10-13T07:22:24;95970.38;;;16.87;95.55
71457;BME280;59263;48.160;11.752;2023-10-13T07:24:52;95965.88;;;16.96;96.34
71457;BME280;59263;48.160;11.752;2023-10-13T07:27:19;95959.47;;;17.28;92.74
71457;BME280;59263;48.160;11.752;2023-10-13T07:29:52;95969.47;;;17.39;91.92
71457;BME280;59263;48.160;11.752;2023-10-13T07:32:36;95959.28;;;17.44;95.79
71457;BME280;59263;48.160;11.752;2023-10-13T07:35:01;95963.06;;;17.56;91.44
71457;BME280;59263;48.160;11.752;2023-10-13T07:37:32;95959.72;;;17.62;94.50
71457;BME280;59263;48.160;11.752;2023-10-13T07:39:58;95957.56;;;17.81;87.06
71457;BME280;59263;48.160;11.752;2023-10-13T07:42:26;95953.19;;;18.09;82.59
71457;BME280;59263;48.160;11.752;2023-10-13T07:45:05;95953.41;;;18.08;85.63
71457;BME280;59263;48.160;11.752;2023-10-13T07:47:30;95951.34;;;18.25;80.14
71457;BME280;59263;48.160;11.752;2023-10-13T07:49:58;95950.94;;;18.49;75.16
71457;BME280;59263;48.160;11.752;2023-10-13T07:52:23;95947.81;;;18.60;72.52
71457;BME280;59263;48.160;11.752;2023-10-13T07:54:49;95949.47;;;18.68;72.75
71457;BME280;59263;48.160;11.752;2023-10-13T07:57:24;95939.63;;;18.92;74.63
71457;BME280;59263;48.160;11.752;2023-10-13T07:59:56;95939.72;;;19.12;75.02
71457;BME280;59263;48.160;11.752;2023-10-13T08:02:36;95945.34;;;19.08;71.61
71457;BME280;59263;48.160;11.752;2023-10-13T08:05:14;95939.25;;;19.36;68.03
71457;BME280;59263;48.160;11.752;2023-10-13T08:07:50;95930.84;;;19.47;63.35
71457;BME280;59263;48.160;11.752;2023-10-13T08:10:15;95926.41;;;19.54;58.89
71457;BME280;59263;48.160;11.752;2023-10-13T08:12:42;95931.94;;;19.66;57.99
71457;BME280;59263;48.160;11.752;2023-10-13T08:15:09;95930.00;;;19.88;55.85
71457;BME280;59263;48.160;11.752;2023-10-13T08:17:47;95933.44;;;19.95;55.94
71457;BME280;59263;48.160;11.752;2023-10-13T08:20:12;95928.00;;;20.10;53.41
71457;BME280;59263;48.160;11.752;2023-10-13T08:22:38;95928.63;;;20.19;52.88
71457;BME280;59263;48.160;11.752;2023-10-13T08:25:04;95933.47;;;20.35;51.80
71457;BME280;59263;48.160;11.752;2023-10-13T08:27:48;95929.25;;;20.47;51.72
71457;BME280;59263;48.160;11.752;2023-10-13T08:30:45;95939.78;;;20.74;50.66
71457;BME280;59263;48.160;11.752;2023-10-13T08:33:17;95932.50;;;20.89;50.58
71457;BME280;59263;48.160;11.752;2023-10-13T08:35:44;95929.84;;;20.96;49.04
71457;BME280;59263;48.160;11.752;2023-10-13T08:38:19;95928.44;;;21.07;49.27
71457;BME280;59263;48.160;11.752;2023-10-13T08:40:57;95924.72;;;21.21;48.43
71457;BME280;59263;48.160;11.752;2023-10-13T08:43:43;95927.53;;;21.39;47.82
71457;BME280;59263;48.160;11.752;2023-10-13T08:46:10;95925.47;;;21.55;47.18
71457;BME280;59263;48.160;11.752;2023-10-13T08:48:53;95920.94;;;21.68;46.19
71457;BME280;59263;48.160;11.752;2023-10-13T08:51:31;95927.78;;;21.76;47.15
71457;BME280;59263;48.160;11.752;2023-10-13T08:54:13;95923.25;;;21.90;46.61
71457;BME280;59263;48.160;11.752;2023-10-13T08:56:48;95925.63;;;21.98;45.79
71457;BME280;59263;48.160;11.752;2023-10-13T08:59:22;95928.00;;;22.13;46.33
71457;BME280;59263;48.160;11.752;2023-10-13T09:01:48;95924.38;;;22.07;46.72
71457;BME280;59263;48.160;11.752;2023-10-13T09:04:25;95922.47;;;22.21;47.37
71457;BME280;59263;48.160;11.752;2023-10-13T09:07:05;95920.69;;;22.46;43.81
71457;BME280;59263;48.160;11.752;2023-10-13T09:14:43;95905.50;;;22.92;42.27
71457;BME280;59263;48.160;11.752;2023-10-13T09:17:13;95900.59;;;22.96;41.48
71457;BME280;59263;48.160;11.752;2023-10-13T09:19:49;95906.25;;;22.99;42.21
71457;BME280;59263;48.160;11.752;2023-10-13T09:22:27;95901.63;;;23.13;40.00
71457;BME280;59263;48.160;11.752;2023-10-13T09:24:57;95901.19;;;23.16;39.55
71457;BME280;59263;48.160;11.752;2023-10-13T09:27:27;95895.69;;;23.36;39.06
71457;BME280;59263;48.160;11.752;2023-10-13T09:29:57;95896.78;;;23.47;38.79
71457;BME280;59263;48.160;11.752;2023-10-13T09:32:23;95895.75;;;23.66;38.57
71457;BME280;59263;48.160;11.752;2023-10-13T09:34:48;95890.72;;;23.76;37.97
71457;BME280;59263;48.160;11.752;2023-10-13T09:37:16;95893.09;;;23.84;37.27
71457;BME280;59263;48.160;11.752;2023-10-13T09:39:46;95889.03;;;23.82;36.82
71457;BME280;59263;48.160;11.752;2023-10-13T09:42:16;95884.25;;;23.90;36.94
71457;BME280;59263;48.160;11.752;2023-10-13T09:44:43;95885.53;;;24.00;36.61
71457;BME280;59263;48.160;11.752;2023-10-13T09:47:20;95884.19;;;24.09;35.92
71457;BME280;59263;48.160;11.752;2023-10-13T09:49:58;95870.63;;;24.17;36.33
71457;BME280;59263;48.160;11.752;2023-10-13T09:52:29;95873.41;;;24.22;36.42
71457;BME280;59263;48.160;11.752;2023-10-13T09:55:08;95870.78;;;24.34;36.57
71457;BME280;59263;48.160;11.752;2023-10-13T09:57:39;95871.50;;;24.41;35.76
71457;BME280;59263;48.160;11.752;2023-10-13T10:00:18;95880.59;;;24.57;35.02
71457;BME280;59263;48.160;11.752;2023-10-13T10:03:05;95874.50;;;24.56;35.38
71457;BME280;59263;48.160;11.752;2023-10-13T10:05:54;95874.06;;;24.48;35.34
71457;BME280;59263;48.160;11.752;2023-10-13T10:08:28;95877.03;;;24.63;34.83
71457;BME280;59263;48.160;11.752;2023-10-13T10:19:16;95864.72;;;24.80;35.38
71457;BME280;59263;48.160;11.752;2023-10-13T10:21:43;95867.72;;;24.72;37.48
71457;BME280;59263;48.160;11.752;2023-10-13T10:24:16;95857.25;;;24.89;34.53
71457;BME280;59263;48.160;11.752;2023-10-13T10:27:01;95853.31;;;24.80;33.17
71457;BME280;59263;48.160;11.752;2023-10-13T10:29:29;95858.13;;;24.95;32.30
71457;BME280;59263;48.160;11.752;2023-10-13T10:31:57;95848.78;;;25.27;32.00
71457;BME280;59263;48.160;11.752;2023-10-13T10:34:30;95835.63;;;25.32;32.19
71457;BME280;59263;48.160;11.752;2023-10-13T10:36:57;95838.84;;;25.34;30.22
71457;BME280;59263;48.160;11.752;2023-10-13T10:39:36;95843.34;;;25.34;31.83
71457;BME280;59263;48.160;11.752;2023-10-13T10:42:12;95834.44;;;25.52;31.56
71457;BME280;59263;48.160;11.752;2023-10-13T10:44:43;95828.47;;;25.45;30.74
71457;BME280;59263;48.160;11.752;2023-10-13T10:47:13;95821.16;;;25.23;30.17
71457;BME280;59263;48.160;11.752;2023-10-13T10:49:56;95816.31;;;25.20;31.45
71457;BME280;59263;48.160;11.752;2023-10-13T10:52:22;95812.16;;;25.24;30.18
71457;BME280;59263;48.160;11.752;2023-10-13T10:54:58;95808.28;;;25.15;30.84
71457;BME280;59263;48.160;11.752;2023-10-13T10:57:24;95803.47;;;25.00;31.06
71457;BME280;59263;48.160;11.752;2023-10-13T10:59:54;95801.72;;;25.06;30.55
71457;BME280;59263;48.160;11.752;2023-10-13T11:02:34;95779.50;;;24.95;30.77
71457;BME280;59263;48.160;11.752;2023-10-13T11:05:00;95794.41;;;25.37;31.23
71457;BME280;59263;48.160;11.752;2023-10-13T11:07:25;95788.69;;;25.16;30.66
71457;BME280;59263;48.160;11.752;2023-10-13T11:09:53;95782.28;;;25.12;30.02
71457;BME280;59263;48.160;11.752;2023-10-13T11:12:19;95776.97;;;25.12;31.30
71457;BME280;59263;48.160;11.752;2023-10-13T11:15:07;95768.19;;;25.52;29.79
71457;BME280;59263;48.160;11.752;2023-10-13T11:17:40;95763.94;;;25.68;27.97
71457;BME280;59263;48.160;11.752;2023-10-13T11:20:13;95763.78;;;25.74;29.41
71457;BME280;59263;48.160;11.752;2023-10-13T11:22:49;95764.63;;;25.92;27.69
71457;BME280;59263;48.160;11.752;2023-10-13T11:25:26;95764.78;;;26.02;27.46
71457;BME280;59263;48.160;11.752;2023-10-13T11:28:20;95761.47;;;25.95;27.06
71457;BME280;59263;48.160;11.752;2023-10-13T11:30:52;95752.38;;;26.24;27.10
71457;BME280;59263;48.160;11.752;2023-10-13T11:33:18;95749.16;;;26.39;26.63
71457;BME280;59263;48.160;11.752;2023-10-13T11:35:49;95741.59;;;26.31;27.19
71457;BME280;59263;48.160;11.752;2023-10-13T11:41:01;95724.22;;;26.40;27.01
71457;BME280;59263;48.160;11.752;2023-10-13T11:43:49;95725.13;;;26.46;28.54
71457;BME280;59263;48.160;11.752;2023-10-13T11:46:15;95730.81;;;26.54;26.79
71457;BME280;59263;48.160;11.752;2023-10-13T11:48:43;95724.16;;;26.74;26.86
71457;BME280;59263;48.160;11.752;2023-10-13T11:51:11;95723.84;;;26.70;26.38
71457;BME280;59263;48.160;11.752;2023-10-13T11:53:50;95714.69;;;26.61;26.40
71457;BME280;59263;48.160;11.752;2023-10-13T11:56:19;95712.78;;;26.40;28.28
71457;BME280;59263;48.160;11.752;2023-10-13T11:58:48;95711.75;;;26.41;28.17
71457;BME280;59263;48.160;11.752;2023-10-13T12:01:14;95697.63;;;26.74;26.53
71457;BME280;59263;48.160;11.752;2023-10-13T12:03:44;95702.78;;;26.86;26.27
71457;BME280;59263;48.160;11.752;2023-10-13T12:06:29;95690.69;;;26.73;26.73
71457;BME280;59263;48.160;11.752;2023-10-13T12:09:07;95690.19;;;26.54;27.60
71457;BME280;59263;48.160;11.752;2023-10-13T12:11:46;95688.91;;;26.78;26.95
71457;BME280;59263;48.160;11.752;2023-10-13T12:14:14;95682.00;;;26.77;26.71
71457;BME280;59263;48.160;11.752;2023-10-13T12:17:03;95676.75;;;26.88;27.19
71457;BME280;59263;48.160;11.752;2023-10-13T12:19:29;95674.44;;;26.69;27.07
71457;BME280;59263;48.160;11.752;2023-10-13T12:21:56;95675.75;;;26.89;26.96
71457;BME280;59263;48.160;11.752;2023-10-13T12:24:27;95669.31;;;26.85;28.32
71457;BME280;59263;48.160;11.752;2023-10-13T12:27:03;95662.38;;;26.84;27.05
71457;BME280;59263;48.160;11.752;2023-10-13T12:29:44;95667.47;;;26.85;28.17
71457;BME280;59263;48.160;11.752;2023-10-13T12:32:11;95660.59;;;27.11;26.68
71457;BME280;59263;48.160;11.752;2023-10-13T12:34:37;95663.06;;;26.96;29.93
71457;BME280;59263;48.160;11.752;2023-10-13T12:37:22;95652.81;;;26.83;33.29
71457;BME280;59263;48.160;11.752;2023-10-13T12:40:07;95660.00;;;26.60;34.46
71457;BME280;59263;48.160;11.752;2023-10-13T12:42:52;95650.22;;;26.88;33.82
71457;BME280;59263;48.160;11.752;2023-10-13T12:45:42;95646.28;;;26.68;34.17
71457;BME280;59263;48.160;11.752;2023-10-13T12:48:27;95638.91;;;26.70;33.38
71457;BME280;59263;48.160;11.752;2023-10-13T12:51:11;95643.47;;;26.53;33.76
71457;BME280;59263;48.160;11.752;2023-10-13T12:53:49;95632.53;;;26.49;33.92
71457;BME280;59263;48.160;11.752;2023-10-13T12:56:15;95632.16;;;26.41;33.57
71457;BME280;59263;48.160;11.752;2023-10-13T12:58:41;95620.63;;;26.52;32.90
71457;BME280;59263;48.160;11.752;2023-10-13T13:01:07;95619.09;;;26.56;32.68
71457;BME280;59263;48.160;11.752;2023-10-13T13:03:32;95626.44;;;26.49;33.20
71457;BME280;59263;48.160;11.752;2023-10-13T13:05:58;95615.47;;;26.45;33.42
71457;BME280;59263;48.160;11.752;2023-10-13T13:08:24;95611.94;;;26.40;32.86
71457;BME280;59263;48.160;11.752;2023-10-13T13:10:50;95610.34;;;26.39;33.15
71457;BME280;59263;48.160;11.752;2023-10-13T13:13:16;95614.38;;;26.41;32.78
71457;BME280;59263;48.160;11.752;2023-10-13T13:15:50;95598.75;;;26.45;32.94
71457;BME280;59263;48.160;11.752;2023-10-13T13:18:15;95599.94;;;26.32;33.77
71457;BME280;59263;48.160;11.752;2023-10-13T13:20:40;95600.13;;;26.25;33.02
71457;BME280;59263;48.160;11.752;2023-10-13T13:23:18;95596.09;;;26.01;34.76
71457;BME280;59263;48.160;11.752;2023-10-13T13:25:45;95596.28;;;26.16;34.65
71457;BME280;59263;48.160;11.752;2023-10-13T13:28:10;95592.34;;;25.97;34.34
71457;BME280;59263;48.160;11.752;2023-10-13T13:30:36;95589.81;;;25.85;34.42
71457;BME280;59263;48.160;11.752;2023-10-13T13:33:03;95584.31;;;25.75;34.08
71457;BME280;59263;48.160;11.752;2023-10-13T13:35:36;95576.13;;;25.76;33.37